createdAt,value
2023-09-13T00:02:11.314Z,5.23
2023-09-13T00:04:38.165Z,5.33
2023-09-13T00:07:04.931Z,5.06
2023-09-13T00:09:31.751Z,5.21
2023-09-13T00:11:58.384Z,5.22
2023-09-13T00:14:25.196Z,5.46
2023-09-13T00:16:53.255Z,5.31
2023-09-13T00:19:20.101Z,5.51
2023-09-13T00:21:46.764Z,5.60
2023-09-13T00:24:13.508Z,5.36
2023-09-13T00:26:40.170Z,5.53
2023-09-13T00:29:06.841Z,5.31
2023-09-13T00:31:34.000Z,5.66
2023-09-13T00:34:02.146Z,5.47
2023-09-13T00:36:28.855Z,5.46
2023-09-13T00:38:55.547Z,5.91
2023-09-13T00:41:22.229Z,5.59
2023-09-13T00:43:48.933Z,5.88
2023-09-13T00:46:15.703Z,5.81
2023-09-13T00:48:42.847Z,6.03
2023-09-13T00:51:10.893Z,5.80
2023-09-13T00:53:37.594Z,5.73
2023-09-13T00:56:04.612Z,5.43
2023-09-13T00:58:31.412Z,5.74
2023-09-13T01:00:58.132Z,5.61
2023-09-13T01:03:24.996Z,5.69
2023-09-13T01:05:51.797Z,5.91
2023-09-13T01:08:19.847Z,5.53
2023-09-13T01:10:46.871Z,5.03
2023-09-13T01:13:13.624Z,5.03
2023-09-13T01:15:44.653Z,5.49
2023-09-13T01:18:13.946Z,5.17
2023-09-13T01:20:49.663Z,5.25
2023-09-13T01:23:34.100Z,4.98
2023-09-13T01:26:06.799Z,5.08
2023-09-13T01:28:36.203Z,5.12
2023-09-13T01:31:04.875Z,5.31
2023-09-13T01:33:31.564Z,4.92
2023-09-13T01:35:58.296Z,5.05
2023-09-13T01:38:24.997Z,5.02
2023-09-13T01:40:52.045Z,5.08
2023-09-13T01:43:19.000Z,5.09
2023-09-13T01:45:47.233Z,5.04
2023-09-13T01:48:13.977Z,5.05
2023-09-13T01:50:40.771Z,5.19
2023-09-13T01:53:07.432Z,5.51
2023-09-13T01:55:34.761Z,5.93
2023-09-13T01:58:01.636Z,5.96
2023-09-13T02:00:28.404Z,5.91
2023-09-13T02:02:56.400Z,5.91
2023-09-13T02:05:23.235Z,6.28
2023-09-13T02:07:49.946Z,5.86
2023-09-13T02:10:16.819Z,5.23
2023-09-13T02:12:43.646Z,5.26
2023-09-13T02:15:10.924Z,5.13
2023-09-13T02:17:37.693Z,5.33
2023-09-13T02:20:07.474Z,5.55
2023-09-13T02:22:35.157Z,5.34
2023-09-13T02:25:01.932Z,5.14
2023-09-13T02:27:29.539Z,5.40
2023-09-13T02:29:56.228Z,5.17
2023-09-13T02:32:22.942Z,5.24
2023-09-13T02:34:49.583Z,5.32
2023-09-13T02:37:17.666Z,5.41
2023-09-13T02:39:44.534Z,5.70
2023-09-13T02:42:11.296Z,6.25
2023-09-13T02:44:38.660Z,6.16
2023-09-13T02:47:05.542Z,5.82
2023-09-13T02:49:33.055Z,6.26
2023-09-13T02:51:59.847Z,6.47
2023-09-13T02:54:27.953Z,6.65
2023-09-13T02:56:54.659Z,6.52
2023-09-13T02:59:21.456Z,6.41
2023-09-13T03:01:49.028Z,6.54
2023-09-13T03:04:16.168Z,6.31
2023-09-13T03:06:43.064Z,6.28
2023-09-13T03:09:09.856Z,6.57
2023-09-13T03:11:38.845Z,6.41
2023-09-13T03:14:05.645Z,6.34
2023-09-13T03:16:32.825Z,6.23
2023-09-13T03:18:59.783Z,6.27
2023-09-13T03:21:32.854Z,6.89
2023-09-13T03:23:59.651Z,6.98
2023-09-13T03:26:26.538Z,6.63
2023-09-13T03:28:56.288Z,6.52
2023-09-13T03:31:24.506Z,6.50
2023-09-13T03:33:53.094Z,6.71
2023-09-13T03:36:20.074Z,6.53
2023-09-13T03:38:50.151Z,6.83
2023-09-13T03:41:21.386Z,6.71
2023-09-13T03:43:48.346Z,6.76
2023-09-13T03:46:16.411Z,6.80
2023-09-13T03:48:45.097Z,6.70
2023-09-13T03:51:12.952Z,6.54
2023-09-13T03:53:39.669Z,6.40
2023-09-13T03:56:07.293Z,6.81
2023-09-13T03:58:35.694Z,6.87
2023-09-13T04:01:02.605Z,6.77
2023-09-13T04:03:30.724Z,6.93
2023-09-13T04:05:57.526Z,7.03
2023-09-13T04:08:24.242Z,7.04
2023-09-13T04:10:50.929Z,6.61
2023-09-13T04:13:19.194Z,6.59
2023-09-13T04:15:46.073Z,6.70
2023-09-13T04:18:13.414Z,6.96
2023-09-13T04:20:42.981Z,6.59
2023-09-13T04:23:09.703Z,6.90
2023-09-13T04:25:37.653Z,6.63
2023-09-13T04:28:06.922Z,6.69
2023-09-13T04:30:34.219Z,6.89
2023-09-13T04:33:02.157Z,6.95
2023-09-13T04:35:28.938Z,6.62
2023-09-13T04:37:56.964Z,6.98
2023-09-13T04:40:23.713Z,7.11
2023-09-13T04:42:55.950Z,7.92
2023-09-13T04:45:23.325Z,9.20
2023-09-13T04:47:50.140Z,9.74
2023-09-13T04:50:16.873Z,9.62
2023-09-13T04:52:43.809Z,9.95
2023-09-13T04:55:12.255Z,9.09
2023-09-13T04:57:39.059Z,8.58
2023-09-13T05:00:06.898Z,8.71
2023-09-13T05:02:33.678Z,8.26
2023-09-13T05:05:00.549Z,9.10
2023-09-13T05:07:27.300Z,9.11
2023-09-13T05:09:54.243Z,8.80
2023-09-13T05:12:22.756Z,10.14
2023-09-13T05:14:49.431Z,9.76
2023-09-13T05:17:16.160Z,9.43
2023-09-13T05:19:42.918Z,9.52
2023-09-13T05:22:09.611Z,9.34
2023-09-13T05:24:36.362Z,9.14
2023-09-13T05:27:03.088Z,9.47
2023-09-13T05:29:31.089Z,9.46
2023-09-13T05:31:59.167Z,9.38
2023-09-13T05:34:26.148Z,9.79
2023-09-13T05:36:52.899Z,9.92
2023-09-13T05:39:19.573Z,10.48
2023-09-13T05:41:46.238Z,10.16
2023-09-13T05:44:18.956Z,9.80
2023-09-13T05:46:47.167Z,8.95
2023-09-13T05:49:13.979Z,9.17
2023-09-13T05:51:41.723Z,9.17
2023-09-13T05:54:08.379Z,11.30
2023-09-13T05:56:35.069Z,9.48
2023-09-13T05:59:01.735Z,9.55
2023-09-13T06:01:28.493Z,9.25
2023-09-13T06:03:56.655Z,9.87
2023-09-13T06:06:23.619Z,10.24
2023-09-13T06:08:50.302Z,10.51
2023-09-13T06:11:16.971Z,9.85
2023-09-13T06:13:43.956Z,9.86
2023-09-13T06:16:10.956Z,9.45
2023-09-13T06:18:38.013Z,8.74
2023-09-13T06:21:06.409Z,8.66
2023-09-13T06:23:34.153Z,8.71
2023-09-13T06:26:00.950Z,8.38
2023-09-13T06:28:27.784Z,8.21
2023-09-13T06:31:02.572Z,7.88
2023-09-13T06:33:40.301Z,8.02
2023-09-13T06:36:10.576Z,7.99
2023-09-13T06:38:37.851Z,7.83
2023-09-13T06:41:04.766Z,7.98
2023-09-13T06:43:33.526Z,7.66
2023-09-13T06:46:06.269Z,7.27
2023-09-13T06:48:34.397Z,6.88
2023-09-13T06:51:47.401Z,6.90
2023-09-13T06:53:51.810Z,6.63
2023-09-13T06:56:21.097Z,7.27
2023-09-13T06:58:51.704Z,7.10
2023-09-13T07:01:35.301Z,7.02
2023-09-13T07:04:09.405Z,7.04
2023-09-13T07:06:39.166Z,7.21
2023-09-13T07:09:07.285Z,6.89
2023-09-13T07:11:34.046Z,6.64
2023-09-13T07:14:00.739Z,6.50
2023-09-13T07:16:27.660Z,6.60
2023-09-13T07:18:54.403Z,6.08
2023-09-13T07:21:21.053Z,6.12
2023-09-13T07:23:47.688Z,6.16
2023-09-13T07:26:15.692Z,6.25
2023-09-13T07:28:42.786Z,5.91
2023-09-13T07:31:10.016Z,6.17
2023-09-13T07:33:36.797Z,6.03
2023-09-13T07:36:03.566Z,5.73
2023-09-13T07:38:30.224Z,6.04
2023-09-13T07:40:57.073Z,6.21
2023-09-13T07:43:25.235Z,5.94
2023-09-13T07:45:52.012Z,5.85
2023-09-13T07:48:18.801Z,6.06
2023-09-13T07:50:45.629Z,6.24
2023-09-13T07:53:12.794Z,6.32
2023-09-13T07:55:39.582Z,6.22
2023-09-13T07:58:06.621Z,6.66
2023-09-13T08:00:34.803Z,6.49
2023-09-13T08:03:01.776Z,6.43
2023-09-13T08:05:28.544Z,6.19
2023-09-13T08:07:55.331Z,6.75
2023-09-13T08:10:22.044Z,6.95
2023-09-13T08:12:48.829Z,7.18
2023-09-13T08:15:15.555Z,7.22
2023-09-13T08:17:43.666Z,7.68
2023-09-13T08:20:11.138Z,7.43
2023-09-13T08:22:40.411Z,7.79
2023-09-13T08:25:09.955Z,7.64
2023-09-13T08:27:36.656Z,7.27
2023-09-13T08:30:03.712Z,7.03
2023-09-13T08:32:30.415Z,6.89
2023-09-13T08:34:58.444Z,7.28
2023-09-13T08:37:25.274Z,7.44
2023-09-13T08:39:51.954Z,7.15
2023-09-13T08:42:18.746Z,7.04
2023-09-13T08:44:45.419Z,6.99
2023-09-13T08:47:12.107Z,7.14
2023-09-13T08:49:38.811Z,14.40
2023-09-13T08:52:07.015Z,23.19
2023-09-13T08:54:47.606Z,14.76
2023-09-13T08:57:18.713Z,10.27
2023-09-13T08:59:45.409Z,9.62
2023-09-13T09:02:15.726Z,8.69
2023-09-13T09:04:42.572Z,7.50
2023-09-13T09:07:10.565Z,7.75
2023-09-13T09:09:37.256Z,7.65
2023-09-13T09:12:04.552Z,7.27
2023-09-13T09:14:32.324Z,7.09
2023-09-13T09:16:59.617Z,6.31
2023-09-13T09:19:26.335Z,6.51
2023-09-13T09:21:53.016Z,5.98
2023-09-13T09:24:21.040Z,6.29
2023-09-13T09:26:47.699Z,6.04
2023-09-13T09:29:15.391Z,5.89
2023-09-13T09:31:42.216Z,5.80
2023-09-13T09:34:09.713Z,5.81
2023-09-13T09:36:43.197Z,5.67
2023-09-13T09:39:09.874Z,5.45
2023-09-13T09:41:38.684Z,5.56
2023-09-13T09:44:05.829Z,5.72
2023-09-13T09:46:32.978Z,5.57
2023-09-13T09:48:59.980Z,5.20
2023-09-13T09:51:26.688Z,5.30
2023-09-13T09:53:53.349Z,5.55
2023-09-13T09:56:20.075Z,5.71
2023-09-13T09:58:48.281Z,5.60
2023-09-13T10:01:15.197Z,5.47
2023-09-13T10:03:41.983Z,6.04
2023-09-13T10:06:10.435Z,6.04
2023-09-13T10:08:41.983Z,6.19
2023-09-13T10:11:11.218Z,5.85
2023-09-13T10:13:38.649Z,5.74
2023-09-13T10:16:07.733Z,6.11
2023-09-13T10:18:37.798Z,5.76
2023-09-13T10:21:04.941Z,6.18
2023-09-13T10:23:38.348Z,6.11
2023-09-13T10:26:05.073Z,6.05
2023-09-13T10:28:31.909Z,6.53
2023-09-13T10:30:58.684Z,6.40
2023-09-13T10:33:26.741Z,6.55
2023-09-13T10:35:53.433Z,6.45
2023-09-13T10:38:23.005Z,6.73
2023-09-13T10:40:51.757Z,7.32
2023-09-13T10:43:18.577Z,6.96
2023-09-13T10:45:45.355Z,7.16
2023-09-13T10:48:12.022Z,7.11
2023-09-13T10:50:40.052Z,7.31
2023-09-13T10:53:06.793Z,6.91
2023-09-13T10:55:33.604Z,6.47
2023-09-13T10:58:00.321Z,6.97
2023-09-13T11:00:27.276Z,7.02
2023-09-13T11:02:54.055Z,6.45
2023-09-13T11:05:20.857Z,6.60
2023-09-13T11:07:49.088Z,6.43
2023-09-13T11:10:16.376Z,6.92
2023-09-13T11:12:43.129Z,6.29
2023-09-13T11:15:13.437Z,6.97
2023-09-13T11:17:40.887Z,7.22
2023-09-13T11:20:24.247Z,7.06
2023-09-13T11:23:02.245Z,7.31
2023-09-13T11:25:31.798Z,7.02
2023-09-13T11:27:58.466Z,6.83
2023-09-13T11:30:47.449Z,6.67
2023-09-13T11:33:14.258Z,6.59
2023-09-13T11:35:40.924Z,6.55
2023-09-13T11:38:09.040Z,9.60
2023-09-13T11:40:35.788Z,6.82
2023-09-13T11:43:05.284Z,6.37
2023-09-13T11:45:34.797Z,6.03
2023-09-13T11:48:02.920Z,6.12
2023-09-13T11:50:47.357Z,5.98
2023-09-13T11:53:16.811Z,5.76
2023-09-13T11:55:58.372Z,5.89
2023-09-13T11:58:36.427Z,5.71
2023-09-13T12:01:10.730Z,5.50
2023-09-13T12:04:13.097Z,5.56
2023-09-13T12:06:32.621Z,5.47
2023-09-13T12:09:14.440Z,5.41
2023-09-13T12:11:44.912Z,5.66
2023-09-13T12:14:22.412Z,5.90
2023-09-13T12:16:57.153Z,5.79
2023-09-13T12:19:24.648Z,5.52
2023-09-13T12:21:51.382Z,5.70
2023-09-13T12:24:25.336Z,5.39
2023-09-13T12:26:52.112Z,5.80
2023-09-13T12:29:18.754Z,5.83
2023-09-13T12:31:45.514Z,5.23
2023-09-13T12:34:12.230Z,5.35
2023-09-13T12:36:40.182Z,5.47
2023-09-13T12:39:15.874Z,5.32
2023-09-13T12:41:47.053Z,5.52
2023-09-13T12:44:13.718Z,5.71
2023-09-13T12:46:40.442Z,5.54
2023-09-13T12:49:07.218Z,4.94
2023-09-13T12:51:33.930Z,4.24
2023-09-13T12:54:00.997Z,4.06
2023-09-13T12:56:27.715Z,4.21
2023-09-13T12:58:56.305Z,4.43
2023-09-13T13:01:23.348Z,4.47
2023-09-13T13:03:57.475Z,4.90
2023-09-13T13:06:24.287Z,5.08
2023-09-13T13:08:50.972Z,5.14
2023-09-13T13:11:17.621Z,4.96
2023-09-13T13:13:44.502Z,5.09
2023-09-13T13:16:16.298Z,5.26
2023-09-13T13:18:54.185Z,5.20
2023-09-13T13:21:37.513Z,5.25
2023-09-13T13:24:06.516Z,4.64
2023-09-13T13:26:33.353Z,4.63
2023-09-13T13:29:00.021Z,4.84
2023-09-13T13:31:28.073Z,5.01
2023-09-13T13:33:54.777Z,5.29
2023-09-13T13:36:21.673Z,5.23
2023-09-13T13:38:48.318Z,5.48
2023-09-13T13:41:14.997Z,5.85
2023-09-13T13:43:41.784Z,5.48
2023-09-13T13:46:09.457Z,5.97
2023-09-13T13:48:37.552Z,6.11
2023-09-13T13:51:04.563Z,5.53
2023-09-13T13:53:31.340Z,5.06
2023-09-13T13:55:58.022Z,4.89
2023-09-13T13:58:24.667Z,5.16
2023-09-13T14:00:51.526Z,5.33
2023-09-13T14:03:18.354Z,5.27
2023-09-13T14:05:48.232Z,5.26
2023-09-13T14:08:17.651Z,5.14
2023-09-13T14:10:44.330Z,4.94
2023-09-13T14:13:14.064Z,5.01
2023-09-13T14:15:41.122Z,5.43
2023-09-13T14:18:07.946Z,5.00
2023-09-13T14:20:34.686Z,4.92
2023-09-13T14:23:02.743Z,5.34
2023-09-13T14:25:29.445Z,4.69
2023-09-13T14:28:09.367Z,4.94
2023-09-13T14:30:37.197Z,6.85
2023-09-13T14:33:04.386Z,6.54
2023-09-13T14:35:31.092Z,7.82
2023-09-13T14:37:57.839Z,5.19
2023-09-13T14:40:26.399Z,5.03
2023-09-13T14:42:53.156Z,4.97
2023-09-13T14:45:19.908Z,5.09
2023-09-13T14:47:46.943Z,4.65
2023-09-13T14:50:13.977Z,4.83
2023-09-13T14:52:40.638Z,5.22
2023-09-13T14:55:08.267Z,4.92
2023-09-13T14:57:37.399Z,4.58
2023-09-13T15:00:05.805Z,4.77
2023-09-13T15:02:32.580Z,4.64
2023-09-13T15:04:59.323Z,4.10
2023-09-13T15:07:25.971Z,4.17
2023-09-13T15:09:52.724Z,4.34
2023-09-13T15:12:19.520Z,4.30
2023-09-13T15:14:47.602Z,4.04
2023-09-13T15:17:14.265Z,3.92
2023-09-13T15:19:41.059Z,4.15
2023-09-13T15:22:07.782Z,4.88
2023-09-13T15:24:34.658Z,5.85
2023-09-13T15:27:01.405Z,4.94
2023-09-13T15:29:28.222Z,4.88
2023-09-13T15:34:25.885Z,4.84
2023-09-13T15:36:52.569Z,4.73
2023-09-13T15:39:19.387Z,4.62
2023-09-13T15:41:46.090Z,4.69
2023-09-13T15:44:12.832Z,4.49
2023-09-13T15:46:39.586Z,4.71
2023-09-13T15:49:07.606Z,4.68
2023-09-13T15:51:34.264Z,4.77
2023-09-13T15:54:00.937Z,4.79
2023-09-13T15:56:27.599Z,5.18
2023-09-13T15:58:54.291Z,4.85
2023-09-13T16:01:20.997Z,4.90
2023-09-13T16:03:47.796Z,4.86
2023-09-13T16:06:16.149Z,4.68
2023-09-13T16:08:43.022Z,4.68
2023-09-13T16:11:10.016Z,4.61
2023-09-13T16:13:36.777Z,4.89
2023-09-13T16:16:03.659Z,4.76
2023-09-13T16:18:30.458Z,5.06
2023-09-13T16:20:57.409Z,4.93
2023-09-13T16:23:25.400Z,4.92
2023-09-13T16:25:52.053Z,4.92
2023-09-13T16:28:18.747Z,5.17
2023-09-13T16:30:45.454Z,5.04
2023-09-13T16:33:12.268Z,5.34
2023-09-13T16:35:38.951Z,5.05
2023-09-13T16:38:06.528Z,5.22
2023-09-13T16:40:34.583Z,4.97
2023-09-13T16:43:01.296Z,5.04
2023-09-13T16:45:28.109Z,5.25
2023-09-13T16:47:54.861Z,4.95
2023-09-13T16:50:21.613Z,4.90
2023-09-13T16:52:48.297Z,4.57
2023-09-13T16:55:14.984Z,4.67
2023-09-13T16:57:43.046Z,4.72
2023-09-13T17:00:10.044Z,5.55
2023-09-13T17:02:36.804Z,6.18
2023-09-13T17:05:03.846Z,6.10
2023-09-13T17:07:30.546Z,6.13
2023-09-13T17:09:57.272Z,5.94
2023-09-13T17:12:24.057Z,6.03
2023-09-13T17:14:52.122Z,5.81
2023-09-13T17:17:19.148Z,5.95
2023-09-13T17:19:45.814Z,5.54
2023-09-13T17:22:12.568Z,5.63
2023-09-13T17:24:39.280Z,5.52
2023-09-13T17:27:10.196Z,5.53
2023-09-13T17:29:37.300Z,5.82
2023-09-13T17:32:08.492Z,5.85
2023-09-13T17:34:35.686Z,5.63
2023-09-13T17:37:02.698Z,5.58
2023-09-13T17:39:29.500Z,5.70
2023-09-13T17:41:56.217Z,5.63
2023-09-13T17:44:22.999Z,5.69
2023-09-13T17:46:49.707Z,5.74
2023-09-13T17:49:17.777Z,5.78
2023-09-13T17:51:44.550Z,5.60
2023-09-13T17:54:13.480Z,5.67
2023-09-13T17:56:40.572Z,6.02
2023-09-13T17:59:07.461Z,5.69
2023-09-13T18:01:34.232Z,5.67
2023-09-13T18:04:01.150Z,5.66
2023-09-13T18:06:29.315Z,5.67
2023-09-13T18:08:56.050Z,6.02
2023-09-13T18:11:22.736Z,6.21
2023-09-13T18:13:49.417Z,6.23
2023-09-13T18:16:16.102Z,6.09
2023-09-13T18:18:42.960Z,5.75
2023-09-13T18:21:09.861Z,6.12
2023-09-13T18:23:37.868Z,6.19
2023-09-13T18:26:04.550Z,6.14
2023-09-13T18:28:31.305Z,6.66
2023-09-13T18:31:04.379Z,6.55
2023-09-13T18:33:31.170Z,6.81
2023-09-13T18:35:58.054Z,6.44
2023-09-13T18:38:24.809Z,6.50
2023-09-13T18:40:52.836Z,6.75
2023-09-13T18:43:19.537Z,6.45
2023-09-13T18:45:46.246Z,6.50
2023-09-13T18:48:12.956Z,6.50
2023-09-13T18:50:39.700Z,6.13
2023-09-13T18:53:06.413Z,6.10
2023-09-13T18:55:33.081Z,6.32
2023-09-13T18:58:01.119Z,6.37
2023-09-13T19:00:27.844Z,6.15
2023-09-13T19:02:56.878Z,6.42
2023-09-13T19:05:23.760Z,6.92
2023-09-13T19:07:50.462Z,7.66
2023-09-13T19:10:17.997Z,7.37
2023-09-13T19:12:44.713Z,7.58
2023-09-13T19:15:13.089Z,7.97
2023-09-13T19:17:39.821Z,7.97
2023-09-13T19:20:08.182Z,8.27
2023-09-13T19:22:34.917Z,8.02
2023-09-13T19:25:01.809Z,8.12
2023-09-13T19:27:28.565Z,7.92
2023-09-13T19:29:55.275Z,7.70
2023-09-13T19:32:23.377Z,7.07
2023-09-13T19:34:50.085Z,6.80
2023-09-13T19:37:16.728Z,6.37
2023-09-13T19:39:43.936Z,6.43
2023-09-13T19:42:10.675Z,6.54
2023-09-13T19:44:37.368Z,6.23
2023-09-13T19:47:04.454Z,6.21
2023-09-13T19:49:32.526Z,6.75
2023-09-13T19:51:59.318Z,6.67
2023-09-13T19:54:26.009Z,6.81
2023-09-13T19:56:52.708Z,7.08
2023-09-13T19:59:19.424Z,7.59
2023-09-13T20:01:46.227Z,6.68
2023-09-13T20:04:13.006Z,6.68
2023-09-13T20:06:41.098Z,7.19
2023-09-13T20:09:07.809Z,7.38
2023-09-13T20:11:41.167Z,7.50
2023-09-13T20:14:07.851Z,7.69
2023-09-13T20:16:34.552Z,7.60
2023-09-13T20:19:01.317Z,7.87
2023-09-13T20:21:28.083Z,7.59
2023-09-13T20:23:56.149Z,7.78
2023-09-13T20:26:23.314Z,8.04
2023-09-13T20:28:50.076Z,8.20
2023-09-13T20:31:16.827Z,8.35
2023-09-13T20:33:43.552Z,8.03
2023-09-13T20:36:10.332Z,7.83
2023-09-13T20:38:36.973Z,7.65
2023-09-13T20:41:04.985Z,7.15
2023-09-13T20:43:31.644Z,7.04
2023-09-13T20:45:58.457Z,7.16
2023-09-13T20:48:25.168Z,7.57
2023-09-13T20:50:51.888Z,7.84
2023-09-13T20:53:18.541Z,8.22
2023-09-13T20:55:45.239Z,8.55
2023-09-13T20:58:13.245Z,8.62
2023-09-13T21:00:40.238Z,9.28
2023-09-13T21:03:07.099Z,9.24
2023-09-13T21:05:33.881Z,8.72
2023-09-13T21:08:00.556Z,8.28
2023-09-13T21:10:27.435Z,8.37
2023-09-13T21:12:54.294Z,8.38
2023-09-13T21:15:22.378Z,8.59
2023-09-13T21:17:49.219Z,8.77
2023-09-13T21:20:16.117Z,8.27
2023-09-13T21:22:43.715Z,8.92
2023-09-13T21:25:10.613Z,8.14
2023-09-13T21:27:37.283Z,7.47
2023-09-13T21:30:04.706Z,6.74
2023-09-13T21:32:33.902Z,5.69
2023-09-13T21:35:02.892Z,4.74
2023-09-13T21:37:33.506Z,4.92
2023-09-13T21:40:01.256Z,4.68
2023-09-13T21:42:28.000Z,4.25
2023-09-13T21:44:55.210Z,4.14
2023-09-13T21:47:21.972Z,3.87
2023-09-13T21:49:49.996Z,3.41
2023-09-13T21:52:16.667Z,3.30
2023-09-13T21:54:47.010Z,3.35
2023-09-13T21:57:13.722Z,3.09
2023-09-13T21:59:40.415Z,3.19
2023-09-13T22:02:07.284Z,3.25
2023-09-13T22:04:34.106Z,3.09
2023-09-13T22:07:02.299Z,3.03
2023-09-13T22:09:29.115Z,2.66
2023-09-13T22:11:55.864Z,2.53
2023-09-13T22:14:22.592Z,2.77
2023-09-13T22:16:49.462Z,2.61
2023-09-13T22:19:16.225Z,2.81
2023-09-13T22:21:43.021Z,2.67
2023-09-13T22:24:11.116Z,2.61
2023-09-13T22:26:37.870Z,3.23
2023-09-13T22:29:04.629Z,3.98
2023-09-13T22:31:31.401Z,4.11
2023-09-13T22:33:58.210Z,4.84
2023-09-13T22:36:25.014Z,5.23
2023-09-13T22:39:02.706Z,6.27
2023-09-13T22:41:37.315Z,6.68
2023-09-13T22:44:04.222Z,7.21
2023-09-13T22:46:31.060Z,8.35
2023-09-13T22:48:57.924Z,7.42
2023-09-13T22:51:24.685Z,7.70
2023-09-13T22:53:51.427Z,8.21
2023-09-13T22:56:18.298Z,8.02
2023-09-13T22:58:46.628Z,7.75
2023-09-13T23:01:13.593Z,7.43
2023-09-13T23:03:45.149Z,7.12
2023-09-13T23:06:12.425Z,7.90
2023-09-13T23:08:39.372Z,7.51
2023-09-13T23:11:06.063Z,7.34
2023-09-13T23:13:32.729Z,7.16
2023-09-13T23:16:01.816Z,7.37
2023-09-13T23:18:28.530Z,7.17
2023-09-13T23:20:55.248Z,7.24
2023-09-13T23:23:21.991Z,7.17
2023-09-13T23:25:57.843Z,6.86
2023-09-13T23:28:24.631Z,5.81
2023-09-13T23:30:51.466Z,5.70
2023-09-13T23:33:19.501Z,5.36
2023-09-13T23:35:46.188Z,5.59
2023-09-13T23:38:12.877Z,5.71
2023-09-13T23:40:39.529Z,5.28
2023-09-13T23:43:06.231Z,4.67
2023-09-13T23:45:33.077Z,3.78
2023-09-13T23:47:59.843Z,3.03
2023-09-13T23:50:27.850Z,2.69
2023-09-13T23:52:54.529Z,2.74
2023-09-13T23:55:21.168Z,3.85
2023-09-13T23:57:47.866Z,4.25
